createdAt,value
2019-03-17T00:02:07.848Z,13.13
2019-03-17T00:04:37.204Z,13.07
2019-03-17T00:07:06.346Z,13.53
2019-03-17T00:09:35.493Z,13.53
2019-03-17T00:12:04.809Z,14.10
2019-03-17T00:14:34.075Z,13.30
2019-03-17T00:17:03.250Z,12.53
2019-03-17T00:19:32.729Z,13.27
2019-03-17T00:22:01.886Z,12.73
2019-03-17T00:24:31.132Z,12.17
2019-03-17T00:27:00.480Z,12.97
2019-03-17T00:29:29.643Z,12.33
2019-03-17T00:31:58.850Z,12.13
2019-03-17T00:34:28.021Z,12.80
2019-03-17T00:36:57.242Z,12.17
2019-03-17T00:39:26.430Z,11.60
2019-03-17T00:41:55.655Z,11.53
2019-03-17T00:44:24.909Z,11.60
2019-03-17T00:46:54.057Z,10.27
2019-03-17T00:49:23.527Z,10.47
2019-03-17T00:51:52.681Z,10.30
2019-03-17T00:54:21.815Z,9.93
2019-03-17T00:56:50.967Z,10.47
2019-03-17T00:59:20.153Z,10.13
2019-03-17T01:01:49.432Z,9.30
2019-03-17T01:04:18.649Z,9.23
2019-03-17T01:06:47.789Z,9.00
2019-03-17T01:09:17.013Z,8.50
2019-03-17T01:11:46.163Z,8.83
2019-03-17T01:14:15.318Z,8.50
2019-03-17T01:16:44.493Z,9.53
2019-03-17T01:19:13.659Z,9.33
2019-03-17T01:21:42.900Z,8.73
2019-03-17T01:24:12.106Z,9.30
2019-03-17T01:26:41.250Z,8.87
2019-03-17T01:29:10.389Z,8.83
2019-03-17T01:31:39.530Z,8.43
2019-03-17T01:34:08.674Z,8.17
2019-03-17T01:36:37.841Z,8.33
2019-03-17T01:39:07.750Z,8.50
2019-03-17T01:41:36.953Z,8.07
2019-03-17T01:44:06.121Z,8.00
2019-03-17T01:46:35.433Z,8.53
2019-03-17T01:49:04.582Z,7.70
2019-03-17T01:51:33.781Z,8.30
2019-03-17T01:54:02.937Z,7.87
2019-03-17T01:56:32.076Z,7.50
2019-03-17T01:59:01.357Z,8.33
2019-03-17T02:01:30.538Z,7.60
2019-03-17T02:03:59.677Z,7.63
2019-03-17T02:06:28.829Z,8.27
2019-03-17T02:08:58.005Z,7.60
2019-03-17T02:11:27.229Z,7.57
2019-03-17T02:13:56.510Z,9.37
2019-03-17T02:16:25.679Z,9.13
2019-03-17T02:18:54.829Z,8.80
2019-03-17T02:21:24.001Z,9.23
2019-03-17T02:23:53.161Z,10.40
2019-03-17T02:26:22.563Z,10.53
2019-03-17T02:28:51.713Z,11.67
2019-03-17T02:31:20.939Z,11.57
2019-03-17T02:33:50.144Z,11.10
2019-03-17T02:36:19.361Z,12.00
2019-03-17T02:38:48.558Z,11.13
2019-03-17T02:41:17.764Z,11.53
2019-03-17T02:43:46.995Z,11.57
2019-03-17T02:46:16.149Z,12.50
2019-03-17T02:48:45.311Z,12.83
2019-03-17T02:51:14.449Z,13.60
2019-03-17T02:53:43.695Z,13.53
2019-03-17T02:56:12.911Z,14.23
2019-03-17T02:58:42.132Z,13.57
2019-03-17T03:01:11.295Z,13.97
2019-03-17T03:03:40.456Z,13.60
2019-03-17T03:06:09.688Z,13.50
2019-03-17T03:08:38.979Z,12.00
2019-03-17T03:11:08.117Z,11.33
2019-03-17T03:13:37.284Z,13.30
2019-03-17T03:16:06.512Z,14.17
2019-03-17T03:18:35.789Z,15.00
2019-03-17T03:21:05.019Z,14.33
2019-03-17T03:23:34.199Z,12.80
2019-03-17T03:26:03.417Z,11.47
2019-03-17T03:28:32.593Z,11.37
2019-03-17T03:31:01.883Z,10.60
2019-03-17T03:33:31.090Z,11.73
2019-03-17T03:36:11.016Z,10.87
2019-03-17T03:38:31.198Z,10.77
2019-03-17T03:41:00.541Z,10.77
2019-03-17T03:43:29.690Z,10.20
2019-03-17T03:45:58.830Z,10.40
2019-03-17T03:48:28.050Z,10.10
2019-03-17T03:50:57.225Z,11.00
2019-03-17T03:53:26.543Z,11.00
2019-03-17T03:55:55.723Z,11.77
2019-03-17T03:58:24.865Z,11.07
2019-03-17T04:00:54.033Z,11.30
2019-03-17T04:03:23.184Z,12.70
2019-03-17T04:05:52.421Z,13.20
2019-03-17T04:08:21.645Z,13.10
2019-03-17T04:10:50.928Z,15.53
2019-03-17T04:13:20.090Z,17.90
2019-03-17T04:15:49.546Z,16.73
2019-03-17T04:18:18.774Z,15.83
2019-03-17T04:20:47.958Z,14.57
2019-03-17T04:23:17.162Z,14.60
2019-03-17T04:25:46.389Z,15.37
2019-03-17T04:28:15.647Z,16.93
2019-03-17T04:30:44.798Z,15.77
2019-03-17T04:33:14.006Z,16.33
2019-03-17T04:35:43.157Z,15.60
2019-03-17T04:38:12.502Z,15.77
2019-03-17T04:40:41.662Z,15.43
2019-03-17T04:43:10.814Z,14.53
2019-03-17T04:45:40.023Z,15.20
2019-03-17T04:48:09.185Z,15.37
2019-03-17T04:50:38.346Z,15.30
2019-03-17T04:53:07.505Z,15.43
2019-03-17T04:55:36.689Z,16.70
2019-03-17T04:58:05.858Z,16.17
2019-03-17T05:00:35.099Z,16.07
2019-03-17T05:03:04.249Z,18.20
2019-03-17T05:05:33.444Z,17.50
2019-03-17T05:08:02.645Z,16.77
2019-03-17T05:10:31.848Z,15.87
2019-03-17T05:13:01.057Z,15.43
2019-03-17T05:15:30.202Z,15.83
2019-03-17T05:17:59.388Z,16.73
2019-03-17T05:20:28.525Z,17.53
2019-03-17T05:22:57.690Z,18.50
2019-03-17T05:25:27.057Z,18.70
2019-03-17T05:27:56.190Z,19.20
2019-03-17T05:30:25.401Z,19.10
2019-03-17T05:32:54.558Z,19.37
2019-03-17T05:35:23.710Z,18.23
2019-03-17T05:37:53.065Z,17.30
2019-03-17T05:40:22.304Z,17.27
2019-03-17T05:42:51.445Z,15.90
2019-03-17T05:45:20.626Z,17.43
2019-03-17T05:47:49.773Z,17.23
2019-03-17T05:50:18.921Z,16.20
2019-03-17T05:52:48.069Z,16.57
2019-03-17T05:55:17.223Z,15.63
2019-03-17T05:57:46.422Z,17.10
2019-03-17T06:00:16.664Z,15.37
2019-03-17T06:02:45.810Z,15.30
2019-03-17T06:05:14.993Z,16.40
2019-03-17T06:07:44.189Z,14.23
2019-03-17T06:10:13.437Z,13.73
2019-03-17T06:12:42.616Z,13.37
2019-03-17T06:15:11.842Z,12.53
2019-03-17T06:17:41.096Z,12.33
2019-03-17T06:20:11.209Z,13.10
2019-03-17T06:22:40.653Z,11.97
2019-03-17T06:25:09.909Z,12.93
2019-03-17T06:27:39.075Z,12.67
2019-03-17T06:30:09.045Z,12.40
2019-03-17T06:32:38.197Z,11.47
2019-03-17T06:35:07.387Z,11.50
2019-03-17T06:37:36.566Z,11.70
2019-03-17T06:40:06.114Z,11.57
2019-03-17T06:42:35.313Z,11.67
2019-03-17T06:45:04.756Z,10.43
2019-03-17T06:47:33.905Z,10.33
2019-03-17T06:50:03.150Z,9.63
2019-03-17T06:52:32.327Z,9.03
2019-03-17T06:55:01.487Z,9.47
2019-03-17T06:57:30.658Z,8.70
2019-03-17T06:59:59.825Z,8.40
2019-03-17T07:02:28.978Z,7.90
2019-03-17T07:04:58.118Z,8.23
2019-03-17T07:07:27.403Z,7.87
2019-03-17T07:09:56.559Z,7.83
2019-03-17T07:12:25.787Z,7.63
2019-03-17T07:14:54.937Z,7.33
2019-03-17T07:17:24.099Z,6.70
2019-03-17T07:19:53.250Z,6.33
2019-03-17T07:22:22.502Z,6.10
2019-03-17T07:24:51.694Z,6.60
2019-03-17T07:27:20.854Z,6.33
2019-03-17T07:29:50.005Z,6.43
2019-03-17T07:32:19.149Z,6.33
2019-03-17T07:34:48.329Z,5.53
2019-03-17T07:37:17.484Z,5.57
2019-03-17T07:39:46.633Z,5.60
2019-03-17T07:42:15.850Z,5.77
2019-03-17T07:44:45.112Z,5.10
2019-03-17T07:47:14.257Z,5.50
2019-03-17T07:49:43.405Z,5.90
2019-03-17T07:52:12.646Z,5.70
2019-03-17T07:54:41.848Z,6.37
2019-03-17T07:57:11.017Z,6.27
2019-03-17T07:59:40.226Z,7.07
2019-03-17T08:02:09.412Z,5.90
2019-03-17T08:04:43.042Z,6.10
2019-03-17T08:07:09.433Z,6.70
2019-03-17T08:09:38.597Z,6.13
2019-03-17T08:12:07.777Z,5.97
2019-03-17T08:14:37.004Z,5.40
2019-03-17T08:17:06.310Z,5.30
2019-03-17T08:19:35.585Z,5.37
2019-03-17T08:22:04.879Z,5.43
2019-03-17T08:24:34.066Z,5.30
2019-03-17T08:27:03.368Z,5.20
2019-03-17T08:29:32.742Z,5.00
2019-03-17T08:32:01.976Z,4.57
2019-03-17T08:34:31.249Z,4.87
2019-03-17T08:37:00.405Z,4.87
2019-03-17T08:39:29.552Z,4.83
2019-03-17T08:41:58.717Z,4.73
2019-03-17T08:44:27.936Z,4.20
2019-03-17T08:46:57.194Z,4.27
2019-03-17T08:49:26.346Z,3.67
2019-03-17T08:51:55.542Z,3.70
2019-03-17T08:54:24.690Z,3.53
2019-03-17T08:56:53.865Z,3.20
2019-03-17T08:59:23.134Z,3.20
2019-03-17T09:01:52.273Z,3.37
2019-03-17T09:04:21.413Z,3.10
2019-03-17T09:06:50.566Z,2.93
2019-03-17T09:09:19.717Z,3.40
2019-03-17T09:11:48.865Z,3.20
2019-03-17T09:14:18.050Z,2.73
2019-03-17T09:16:47.209Z,3.00
2019-03-17T09:19:16.385Z,2.90
2019-03-17T09:21:45.562Z,3.10
2019-03-17T09:24:17.422Z,2.83
2019-03-17T09:26:45.895Z,3.00
2019-03-17T09:29:15.064Z,3.10
2019-03-17T09:31:44.237Z,3.17
2019-03-17T09:34:13.383Z,3.23
2019-03-17T09:36:42.540Z,3.50
2019-03-17T09:39:11.689Z,3.10
2019-03-17T09:41:40.838Z,2.63
2019-03-17T09:44:10.169Z,3.10
2019-03-17T09:46:39.310Z,2.95
2019-03-17T09:49:08.511Z,3.00
2019-03-17T09:51:37.774Z,2.92
2019-03-17T09:54:06.922Z,2.92
2019-03-17T09:56:36.117Z,3.20
2019-03-17T09:59:05.274Z,3.22
2019-03-17T10:01:34.459Z,2.90
2019-03-17T10:04:03.670Z,2.83
2019-03-17T10:06:32.809Z,2.90
2019-03-17T10:09:01.993Z,3.50
2019-03-17T10:11:31.201Z,3.60
2019-03-17T10:14:00.338Z,3.22
2019-03-17T10:16:29.517Z,2.83
2019-03-17T10:18:58.717Z,2.87
2019-03-17T10:21:27.870Z,3.08
2019-03-17T10:23:57.022Z,2.75
2019-03-17T10:26:26.200Z,2.60
2019-03-17T10:28:55.422Z,2.90
2019-03-17T10:31:24.557Z,3.50
2019-03-17T10:33:53.735Z,3.10
2019-03-17T10:36:22.987Z,2.72
2019-03-17T10:38:52.134Z,2.80
2019-03-17T10:41:21.303Z,2.80
2019-03-17T10:43:50.494Z,2.72
2019-03-17T10:46:19.639Z,2.80
2019-03-17T10:48:48.926Z,2.80
2019-03-17T10:51:18.089Z,3.05
2019-03-17T10:53:47.241Z,3.05
2019-03-17T10:56:16.482Z,3.37
2019-03-17T10:58:45.711Z,3.60
2019-03-17T11:01:14.941Z,3.72
2019-03-17T11:03:44.161Z,2.90
2019-03-17T11:06:13.358Z,3.00
2019-03-17T11:08:42.517Z,3.20
2019-03-17T11:11:12.304Z,2.70
2019-03-17T11:13:41.674Z,2.15
2019-03-17T11:16:10.827Z,2.47
2019-03-17T11:18:40.121Z,2.58
2019-03-17T11:21:09.390Z,2.30
2019-03-17T11:23:38.613Z,2.08
2019-03-17T11:26:07.774Z,2.33
2019-03-17T11:28:36.926Z,2.90
2019-03-17T11:31:06.157Z,2.60
2019-03-17T11:33:35.358Z,2.47
2019-03-17T11:36:04.592Z,2.67
2019-03-17T11:38:33.733Z,3.10
2019-03-17T11:41:02.901Z,2.80
2019-03-17T11:43:32.097Z,2.40
2019-03-17T11:46:01.361Z,2.57
2019-03-17T11:48:30.585Z,2.40
2019-03-17T11:50:59.878Z,2.30
2019-03-17T11:53:29.012Z,2.40
2019-03-17T11:55:58.197Z,2.67
2019-03-17T11:58:27.573Z,3.10
2019-03-17T12:00:56.741Z,2.63
2019-03-17T12:03:25.901Z,2.43
2019-03-17T12:05:55.124Z,2.70
2019-03-17T12:08:24.273Z,2.53
2019-03-17T12:10:53.449Z,3.17
2019-03-17T12:13:22.602Z,2.53
2019-03-17T12:15:51.901Z,2.50
2019-03-17T12:18:21.092Z,2.63
2019-03-17T12:20:50.250Z,2.80
2019-03-17T12:23:19.457Z,2.93
2019-03-17T12:25:48.711Z,2.60
2019-03-17T12:28:17.846Z,2.77
2019-03-17T12:30:47.005Z,3.63
2019-03-17T12:33:16.197Z,3.90
2019-03-17T12:35:45.428Z,3.30
2019-03-17T12:38:14.647Z,2.87
2019-03-17T12:40:43.826Z,2.77
2019-03-17T12:43:13.008Z,2.80
2019-03-17T12:45:42.150Z,2.83
2019-03-17T12:48:11.366Z,2.40
2019-03-17T12:50:40.534Z,2.30
2019-03-17T12:53:09.673Z,3.33
2019-03-17T12:55:39.074Z,3.90
2019-03-17T12:58:08.214Z,2.60
2019-03-17T13:00:37.504Z,2.40
2019-03-17T13:03:06.742Z,2.73
2019-03-17T13:05:35.970Z,2.60
2019-03-17T13:08:05.244Z,2.70
2019-03-17T13:10:34.441Z,2.80
2019-03-17T13:13:03.597Z,3.03
2019-03-17T13:15:32.933Z,3.80
2019-03-17T13:18:02.178Z,2.73
2019-03-17T13:20:31.334Z,2.70
2019-03-17T13:23:00.482Z,2.20
2019-03-17T13:25:29.666Z,2.37
2019-03-17T13:27:58.805Z,2.90
2019-03-17T13:30:27.945Z,3.50
2019-03-17T13:32:57.118Z,3.10
2019-03-17T13:35:26.264Z,2.90
2019-03-17T13:37:55.467Z,2.53
2019-03-17T13:40:29.463Z,3.60
2019-03-17T13:42:55.507Z,3.73
2019-03-17T13:45:24.690Z,3.13
2019-03-17T13:47:53.932Z,2.60
2019-03-17T13:50:23.194Z,2.70
2019-03-17T13:52:52.330Z,3.10
2019-03-17T13:55:21.588Z,2.10
2019-03-17T13:57:52.865Z,2.67
2019-03-17T14:00:22.000Z,2.73
2019-03-17T14:02:51.159Z,2.27
2019-03-17T14:05:20.301Z,2.77
2019-03-17T14:07:49.474Z,2.77
2019-03-17T14:10:18.790Z,2.73
2019-03-17T14:12:47.926Z,2.50
2019-03-17T14:15:17.149Z,2.97
2019-03-17T14:17:46.305Z,2.87
2019-03-17T14:20:16.596Z,3.07
2019-03-17T14:22:45.783Z,2.40
2019-03-17T14:25:20.541Z,2.40
2019-03-17T14:27:49.693Z,3.20
2019-03-17T14:30:18.941Z,3.70
2019-03-17T14:32:48.081Z,3.60
2019-03-17T14:35:17.225Z,3.43
2019-03-17T14:37:46.406Z,4.20
2019-03-17T14:40:15.630Z,3.90
2019-03-17T14:42:45.136Z,3.23
2019-03-17T14:45:14.948Z,3.27
2019-03-17T14:47:44.281Z,2.90
2019-03-17T14:50:15.290Z,3.17
2019-03-17T14:52:44.513Z,2.77
2019-03-17T14:55:13.670Z,2.90
2019-03-17T14:57:42.963Z,3.47
2019-03-17T15:00:14.819Z,2.83
2019-03-17T15:02:44.080Z,3.47
2019-03-17T15:05:13.349Z,3.10
2019-03-17T15:07:42.519Z,3.03
2019-03-17T15:10:13.826Z,3.30
2019-03-17T15:12:43.054Z,3.10
2019-03-17T15:15:13.786Z,2.90
2019-03-17T15:17:42.945Z,2.97
2019-03-17T15:20:14.018Z,2.93
2019-03-17T15:22:43.209Z,3.30
2019-03-17T15:25:12.403Z,2.90
2019-03-17T15:27:42.015Z,3.07
2019-03-17T15:30:29.580Z,2.80
2019-03-17T15:32:58.719Z,3.20
2019-03-17T15:35:27.889Z,3.03
2019-03-17T15:37:57.042Z,2.90
2019-03-17T15:40:26.187Z,3.27
2019-03-17T15:42:55.342Z,3.47
2019-03-17T15:45:24.550Z,3.10
2019-03-17T15:47:53.705Z,3.10
2019-03-17T15:50:22.869Z,3.33
2019-03-17T15:52:52.102Z,3.30
2019-03-17T15:55:21.333Z,3.10
2019-03-17T15:57:50.473Z,3.60
2019-03-17T16:00:25.319Z,3.90
2019-03-17T16:02:51.173Z,4.13
2019-03-17T16:05:20.900Z,4.70
2019-03-17T16:07:50.247Z,4.70
2019-03-17T16:10:20.151Z,4.37
2019-03-17T16:12:49.449Z,4.40
2019-03-17T16:15:18.695Z,4.13
2019-03-17T16:17:48.117Z,4.07
2019-03-17T16:20:18.435Z,4.30
2019-03-17T16:22:47.652Z,4.17
2019-03-17T16:25:17.430Z,4.40
2019-03-17T16:27:46.607Z,4.63
2019-03-17T16:30:17.811Z,4.73
2019-03-17T16:32:47.167Z,5.03
2019-03-17T16:35:16.487Z,4.87
2019-03-17T16:37:45.633Z,5.13
2019-03-17T16:40:16.017Z,4.63
2019-03-17T16:42:45.348Z,5.10
2019-03-17T16:45:15.065Z,5.90
2019-03-17T16:47:44.227Z,5.37
2019-03-17T16:50:14.845Z,5.00
2019-03-17T16:52:43.997Z,4.80
2019-03-17T16:55:13.478Z,4.60
2019-03-17T16:57:42.953Z,4.37
2019-03-17T17:00:19.066Z,3.90
2019-03-17T17:02:47.825Z,4.03
2019-03-17T17:05:17.094Z,4.00
2019-03-17T17:07:46.242Z,3.67
2019-03-17T17:10:16.361Z,3.50
2019-03-17T17:12:45.588Z,3.10
2019-03-17T17:15:16.851Z,3.50
2019-03-17T17:17:46.003Z,3.40
2019-03-17T17:20:17.033Z,3.43
2019-03-17T17:22:46.202Z,3.93
2019-03-17T17:25:15.486Z,3.90
2019-03-17T17:27:44.629Z,4.03
2019-03-17T17:30:15.246Z,4.17
2019-03-17T17:32:44.673Z,4.63
2019-03-17T17:35:14.016Z,4.80
2019-03-17T17:37:43.203Z,4.53
2019-03-17T17:40:14.710Z,4.00
2019-03-17T17:42:43.864Z,4.60
2019-03-17T17:45:14.774Z,5.07
2019-03-17T17:47:44.089Z,5.50
2019-03-17T17:50:14.925Z,5.40
2019-03-17T17:52:44.109Z,5.17
2019-03-17T17:55:13.561Z,5.50
2019-03-17T17:57:42.721Z,4.93
2019-03-17T18:00:14.892Z,5.20
2019-03-17T18:02:44.024Z,4.83
2019-03-17T18:05:14.349Z,4.90
2019-03-17T18:07:43.505Z,5.07
2019-03-17T18:10:13.465Z,5.20
2019-03-17T18:12:42.765Z,4.77
2019-03-17T18:15:16.598Z,4.60
2019-03-17T18:17:45.758Z,4.67
2019-03-17T18:20:14.912Z,5.20
2019-03-17T18:22:44.065Z,5.13
2019-03-17T18:25:14.016Z,5.60
2019-03-17T18:27:43.180Z,6.97
2019-03-17T18:30:13.905Z,6.70
2019-03-17T18:32:43.094Z,7.27
2019-03-17T18:35:13.841Z,7.70
2019-03-17T18:37:43.120Z,6.87
2019-03-17T18:40:13.621Z,6.83
2019-03-17T18:42:42.781Z,7.80
2019-03-17T18:45:14.081Z,7.47
2019-03-17T18:47:43.221Z,7.80
2019-03-17T18:50:20.231Z,8.40
2019-03-17T18:52:43.359Z,9.03
2019-03-17T18:55:13.014Z,9.13
2019-03-17T18:57:42.242Z,8.80
2019-03-17T19:00:14.084Z,9.07
2019-03-17T19:02:43.431Z,10.20
2019-03-17T19:05:16.041Z,9.93
2019-03-17T19:07:45.273Z,10.77
2019-03-17T19:10:14.786Z,10.90
2019-03-17T19:12:45.659Z,12.17
2019-03-17T19:15:15.371Z,12.67
2019-03-17T19:17:44.670Z,12.13
2019-03-17T19:20:14.758Z,10.83
2019-03-17T19:22:43.965Z,11.20
2019-03-17T19:25:14.064Z,11.17
2019-03-17T19:27:43.318Z,11.17
2019-03-17T19:30:15.957Z,10.53
2019-03-17T19:32:45.358Z,11.47
2019-03-17T19:35:14.870Z,11.47
2019-03-17T19:37:44.187Z,11.60
2019-03-17T19:40:14.245Z,12.83
2019-03-17T19:42:43.694Z,11.60
2019-03-17T19:45:12.869Z,13.20
2019-03-17T19:47:42.041Z,13.17
2019-03-17T19:50:12.345Z,13.30
2019-03-17T19:52:41.724Z,13.20
2019-03-17T19:55:11.086Z,14.17
2019-03-17T19:57:40.286Z,13.87
2019-03-17T20:00:15.722Z,14.67
2019-03-17T20:02:47.518Z,14.30
2019-03-17T20:05:16.045Z,15.73
2019-03-17T20:07:45.381Z,13.63
2019-03-17T20:10:17.292Z,15.03
2019-03-17T20:12:46.453Z,12.43
2019-03-17T20:15:15.609Z,13.43
2019-03-17T20:17:44.761Z,12.43
2019-03-17T20:20:13.962Z,12.77
2019-03-17T20:22:43.427Z,11.60
2019-03-17T20:25:12.886Z,11.10
2019-03-17T20:27:42.045Z,11.10
2019-03-17T20:30:12.250Z,10.83
2019-03-17T20:32:41.490Z,11.03
2019-03-17T20:35:11.156Z,12.13
2019-03-17T20:37:40.340Z,10.83
2019-03-17T20:40:10.700Z,10.20
2019-03-17T20:42:39.927Z,10.63
2019-03-17T20:45:09.929Z,11.30
2019-03-17T20:47:39.318Z,11.47
2019-03-17T20:50:09.546Z,12.20
2019-03-17T20:52:38.689Z,13.10
2019-03-17T20:55:08.474Z,12.07
2019-03-17T20:57:37.646Z,11.70
2019-03-17T21:00:07.681Z,13.00
2019-03-17T21:02:36.956Z,12.13
2019-03-17T21:05:07.090Z,11.97
2019-03-17T21:07:36.255Z,13.33
2019-03-17T21:10:06.723Z,13.70
2019-03-17T21:12:36.293Z,14.30
2019-03-17T21:15:05.906Z,14.43
2019-03-17T21:17:35.057Z,13.97
2019-03-17T21:20:04.657Z,13.57
2019-03-17T21:22:33.825Z,14.20
2019-03-17T21:25:02.973Z,13.97
2019-03-17T21:27:32.251Z,14.03
2019-03-17T21:30:01.411Z,13.90
2019-03-17T21:32:30.900Z,11.53
2019-03-17T21:35:00.160Z,11.77
2019-03-17T21:37:29.697Z,11.50
2019-03-17T21:39:58.878Z,11.03
2019-03-17T21:42:28.061Z,11.63
2019-03-17T21:44:57.205Z,10.63
2019-03-17T21:47:26.429Z,23.40
2019-03-17T21:49:55.626Z,26.97
2019-03-17T21:52:24.856Z,21.50
2019-03-17T21:54:54.076Z,18.77
2019-03-17T21:57:23.229Z,20.03
2019-03-17T21:59:52.390Z,19.10
2019-03-17T22:02:21.549Z,17.47
2019-03-17T22:04:50.710Z,12.30
2019-03-17T22:07:19.919Z,11.13
2019-03-17T22:09:49.129Z,8.93
2019-03-17T22:12:18.287Z,8.87
2019-03-17T22:14:47.446Z,9.37
2019-03-17T22:17:16.605Z,11.40
2019-03-17T22:19:45.816Z,9.10
2019-03-17T22:22:14.965Z,9.83
2019-03-17T22:24:44.152Z,8.53
2019-03-17T22:27:13.367Z,7.07
2019-03-17T22:29:42.591Z,5.93
2019-03-17T22:32:11.748Z,4.97
2019-03-17T22:34:40.940Z,4.50
2019-03-17T22:37:10.110Z,4.93
2019-03-17T22:39:39.261Z,4.87
2019-03-17T22:42:08.471Z,4.53
2019-03-17T22:44:37.751Z,5.50
2019-03-17T22:47:06.926Z,4.93
2019-03-17T22:49:36.101Z,4.67
2019-03-17T22:52:05.317Z,4.07
2019-03-17T22:54:34.474Z,4.47
2019-03-17T22:57:03.698Z,3.57
2019-03-17T22:59:32.956Z,3.80
2019-03-17T23:02:02.865Z,3.90
2019-03-17T23:04:32.175Z,4.23
2019-03-17T23:07:01.497Z,4.87
2019-03-17T23:09:31.397Z,4.13
2019-03-17T23:12:00.750Z,4.20
2019-03-17T23:14:36.562Z,3.30
2019-03-17T23:17:01.145Z,3.07
2019-03-17T23:19:30.497Z,3.57
2019-03-17T23:21:59.815Z,3.93
2019-03-17T23:24:29.132Z,3.97
2019-03-17T23:26:58.480Z,3.13
2019-03-17T23:29:27.873Z,2.87
2019-03-17T23:31:57.212Z,3.00
2019-03-17T23:34:26.597Z,2.60
2019-03-17T23:36:55.906Z,2.40
2019-03-17T23:39:25.333Z,2.23
2019-03-17T23:41:54.650Z,2.77
2019-03-17T23:44:23.966Z,2.50
2019-03-17T23:46:53.348Z,2.10
2019-03-17T23:49:22.744Z,1.73
2019-03-17T23:51:52.115Z,2.63
2019-03-17T23:54:21.434Z,2.10
2019-03-17T23:56:50.744Z,2.50
2019-03-17T23:59:20.296Z,2.50
